createdAt,value
2019-05-09T06:58:48.103Z,11.22
2019-05-09T07:01:21.251Z,12.20
2019-05-09T07:03:54.265Z,10.38
2019-05-09T07:06:38.044Z,13.98
2019-05-09T07:09:12.084Z,13.68
2019-05-09T07:11:40.981Z,17.07
2019-05-09T07:14:25.631Z,16.77
2019-05-09T07:16:41.697Z,17.35
2019-05-09T07:19:10.485Z,21.68
2019-05-09T07:21:40.811Z,22.45
2019-05-09T07:24:09.724Z,23.35
2019-05-09T07:26:43.192Z,21.42
2019-05-09T07:29:12.969Z,19.75
2019-05-09T07:31:43.427Z,20.43
2019-05-09T07:34:19.318Z,30.68
2019-05-09T07:36:48.776Z,23.20
2019-05-09T07:39:17.688Z,21.33
2019-05-09T07:41:47.840Z,22.20
2019-05-09T07:44:18.191Z,25.55
2019-05-09T07:46:52.266Z,31.82
2019-05-09T07:49:21.085Z,30.48
2019-05-09T07:51:49.833Z,34.78
2019-05-09T07:54:25.224Z,31.95
2019-05-09T07:56:49.058Z,39.33
2019-05-09T07:59:18.194Z,40.23
2019-05-09T08:01:48.753Z,37.10
2019-05-09T08:04:18.226Z,35.05
2019-05-09T08:06:48.637Z,38.83
2019-05-09T08:09:18.711Z,31.52
2019-05-09T08:11:48.307Z,32.65
2019-05-09T08:14:17.708Z,35.43
2019-05-09T08:16:47.558Z,33.05
2019-05-09T08:19:18.079Z,30.90
2019-05-09T08:21:47.967Z,32.58
2019-05-09T08:24:18.347Z,36.33
2019-05-09T08:26:47.791Z,28.00
2019-05-09T08:29:17.770Z,27.85
2019-05-09T08:31:48.587Z,25.85
2019-05-09T08:34:18.711Z,23.45
2019-05-09T08:36:47.931Z,30.35
2019-05-09T08:39:18.356Z,22.62
2019-05-09T08:41:48.636Z,24.27
2019-05-09T08:44:18.631Z,21.52
2019-05-09T08:46:48.171Z,20.65
2019-05-09T08:49:18.984Z,15.30
2019-05-09T08:52:06.776Z,18.95
2019-05-09T08:54:39.621Z,13.13
2019-05-09T08:57:08.556Z,14.20
2019-05-09T08:59:38.309Z,14.75
2019-05-09T09:02:14.434Z,14.55
2019-05-09T09:04:38.364Z,13.13
2019-05-09T09:07:08.497Z,10.28
2019-05-09T09:09:37.937Z,11.28
2019-05-09T09:12:25.179Z,14.28
2019-05-09T09:14:38.720Z,14.50
2019-05-09T09:17:08.005Z,13.98
2019-05-09T09:19:38.555Z,12.82
2019-05-09T09:22:08.825Z,14.75
2019-05-09T09:24:37.914Z,11.20
2019-05-09T09:27:07.725Z,10.55
2019-05-09T09:29:38.030Z,11.80
2019-05-09T09:32:08.367Z,12.82
2019-05-09T09:34:38.017Z,8.15
2019-05-09T09:37:11.298Z,12.40
2019-05-09T09:39:44.833Z,11.45
2019-05-09T09:42:13.103Z,9.05
2019-05-09T09:44:41.874Z,12.88
2019-05-09T09:47:10.987Z,12.58
2019-05-09T09:49:39.936Z,11.10
2019-05-09T09:52:08.842Z,11.83
2019-05-09T09:54:38.545Z,14.05
2019-05-09T09:57:09.742Z,11.55
2019-05-09T09:59:55.002Z,11.65
2019-05-09T10:02:39.122Z,11.40
2019-05-09T10:05:08.137Z,10.55
2019-05-09T10:07:38.424Z,16.37
2019-05-09T10:10:07.937Z,14.65
2019-05-09T10:12:44.352Z,10.20
2019-05-09T10:15:18.884Z,11.35
2019-05-09T10:17:52.001Z,17.32
2019-05-09T10:20:24.732Z,13.30
2019-05-09T10:22:59.890Z,12.55
